Time;durP1;ratioP1;P1;durP2;ratioP2;P2;SDS_P1;SDS_P2;PMS_P1;PMS_P2;Temp;Humidity;BMP_temperature;BMP_pressure;BME280_temperature;BME280_humidity;BME280_pressure;Samples;Min_cycle;Max_cycle;Signal;HPM_P1;HPM_P2
2023/05/12 00:00:01;;;;;;;1999.90;999.90;;;9.60;97.10;;;;;;5056225;28;20090;-77
2023/05/12 00:02:27;;;;;;;1999.90;999.90;;;9.70;97.10;;;;;;5059868;28;20025;-77
2023/05/12 00:04:52;;;;;;;1999.90;999.90;;;9.70;97.00;;;;;;5050131;28;20048;-76
2023/05/12 00:07:18;;;;;;;1999.90;999.90;;;9.80;97.00;;;;;;5051101;28;20036;-76
2023/05/12 00:09:44;;;;;;;1999.90;999.90;;;9.70;96.80;;;;;;5073754;28;20039;-77
2023/05/12 00:12:10;;;;;;;1999.90;999.90;;;9.50;96.70;;;;;;5049281;28;20115;-76
2023/05/12 00:14:36;;;;;;;1999.90;999.90;;;9.50;97.00;;;;;;5066104;28;20086;-77
2023/05/12 00:17:03;;;;;;;1999.90;999.90;;;9.50;97.10;;;;;;5068751;28;20035;-77
2023/05/12 00:19:29;;;;;;;1999.90;999.90;;;9.60;97.20;;;;;;5068309;28;20732;-76
2023/05/12 00:21:55;;;;;;;1999.90;999.90;;;9.60;97.10;;;;;;5030557;28;20029;-77
2023/05/12 00:24:23;;;;;;;1999.90;999.90;;;9.70;97.00;;;;;;5049858;28;20373;-77
2023/05/12 00:26:49;;;;;;;1999.90;999.90;;;9.60;97.00;;;;;;5061653;28;20042;-76
2023/05/12 00:29:14;;;;;;;1999.90;999.90;;;9.60;96.90;;;;;;5045913;28;20041;-76
2023/05/12 00:31:40;;;;;;;1999.90;999.90;;;9.50;97.00;;;;;;5047409;28;20157;-76
2023/05/12 00:34:06;;;;;;;1999.90;999.90;;;9.50;97.30;;;;;;5053575;28;20034;-76
2023/05/12 00:36:31;;;;;;;1999.90;999.90;;;9.50;97.30;;;;;;5067371;28;20040;-76
2023/05/12 00:38:57;;;;;;;1999.90;999.90;;;9.60;97.40;;;;;;5071415;28;20730;-75
2023/05/12 00:41:23;;;;;;;1999.90;999.90;;;9.70;97.20;;;;;;5055147;28;20033;-76
2023/05/12 00:43:49;;;;;;;1999.90;999.90;;;9.70;97.10;;;;;;5050190;28;20102;-76
2023/05/12 00:46:16;;;;;;;1999.90;999.90;;;9.60;97.10;;;;;;5059266;28;20120;-76
2023/05/12 00:48:43;;;;;;;1999.90;999.90;;;9.60;97.30;;;;;;5052377;28;20094;-77
2023/05/12 00:51:09;;;;;;;1999.90;999.90;;;9.70;97.20;;;;;;5065912;28;20106;-76
2023/05/12 00:53:35;;;;;;;1999.90;999.90;;;9.70;97.20;;;;;;5072691;28;20021;-75
2023/05/12 00:56:01;;;;;;;1999.90;999.90;;;9.60;97.30;;;;;;5075302;28;20028;-76
2023/05/12 00:58:26;;;;;;;1999.90;999.90;;;9.60;97.20;;;;;;5054983;28;20032;-76
2023/05/12 01:00:52;;;;;;;1999.90;999.90;;;9.70;97.30;;;;;;5067723;28;20043;-76
2023/05/12 01:03:18;;;;;;;1999.90;999.90;;;9.70;97.10;;;;;;5046178;28;20071;-76
2023/05/12 01:06:08;;;;;;;1999.90;999.90;;;9.60;97.10;;;;;;5067479;28;20505;-76
2023/05/12 01:08:35;;;;;;;1999.90;999.90;;;9.60;97.10;;;;;;5067731;28;20058;-75
2023/05/12 01:11:01;;;;;;;1999.90;999.90;;;9.50;97.30;;;;;;5068248;28;20040;-76
2023/05/12 01:13:27;;;;;;;1999.90;999.90;;;9.60;97.20;;;;;;5050331;28;20035;-76
2023/05/12 01:15:54;;;;;;;1999.90;999.90;;;9.50;97.30;;;;;;5052054;28;20024;-76
2023/05/12 01:18:22;;;;;;;1999.90;999.90;;;9.50;97.30;;;;;;5074675;28;20024;-76
2023/05/12 01:20:49;;;;;;;1999.90;999.90;;;9.60;97.40;;;;;;5068278;28;20060;-76
2023/05/12 01:23:18;;;;;;;1999.90;999.90;;;9.60;97.30;;;;;;5066416;28;20342;-76
2023/05/12 01:25:47;;;;;;;1999.90;999.90;;;9.60;97.30;;;;;;5066633;28;20037;-76
2023/05/12 01:28:30;;;;;;;1999.90;999.90;;;9.60;97.30;;;;;;5050108;28;20036;-76
2023/05/12 01:30:56;;;;;;;1999.90;999.90;;;9.80;97.30;;;;;;5068503;28;20051;-76
2023/05/12 01:33:22;;;;;;;1999.90;999.90;;;9.80;96.90;;;;;;5070866;28;20028;-76
2023/05/12 01:35:47;;;;;;;1999.90;999.90;;;9.80;96.90;;;;;;5072357;28;20074;-76
2023/05/12 01:38:13;;;;;;;1999.90;999.90;;;9.60;96.80;;;;;;5068293;28;20028;-77
2023/05/12 01:40:38;;;;;;;1999.90;999.90;;;9.70;96.90;;;;;;5069720;28;20025;-76
2023/05/12 01:43:04;;;;;;;1999.90;999.90;;;9.80;97.00;;;;;;5051386;28;20040;-76
2023/05/12 01:45:30;;;;;;;1999.90;999.90;;;9.70;96.90;;;;;;5071437;28;20024;-76
2023/05/12 01:47:55;;;;;;;1999.90;999.90;;;9.70;97.10;;;;;;5045101;28;20036;-76
2023/05/12 01:50:21;;;;;;;1999.90;999.90;;;9.60;97.10;;;;;;5036610;28;20068;-77
2023/05/12 01:52:47;;;;;;;1999.90;999.90;;;9.60;97.20;;;;;;5070136;28;20063;-76
2023/05/12 01:55:12;;;;;;;1999.90;999.90;;;9.50;97.00;;;;;;5038362;28;20395;-76
2023/05/12 01:57:38;;;;;;;1999.90;999.90;;;9.60;97.40;;;;;;5052067;28;20031;-76
2023/05/12 02:00:04;;;;;;;1999.90;999.90;;;9.70;97.30;;;;;;5056191;28;20039;-76
2023/05/12 02:02:32;;;;;;;1999.90;999.90;;;9.60;97.40;;;;;;5069385;28;20028;-76
2023/05/12 02:04:58;;;;;;;1999.90;999.90;;;9.60;97.30;;;;;;5072455;28;20037;-77
2023/05/12 02:07:23;;;;;;;1999.90;999.90;;;9.60;97.30;;;;;;5056691;28;20414;-76
2023/05/12 02:09:49;;;;;;;1999.90;999.90;;;9.60;97.30;;;;;;5052523;28;20040;-76
2023/05/12 02:12:15;;;;;;;1999.90;999.90;;;9.60;97.30;;;;;;5030590;28;20111;-76
2023/05/12 02:14:41;;;;;;;1999.90;999.90;;;9.60;97.40;;;;;;5064824;28;20112;-76
2023/05/12 02:17:07;;;;;;;1999.90;999.90;;;9.60;97.20;;;;;;5045419;28;20111;-76
2023/05/12 02:19:33;;;;;;;1999.90;999.90;;;9.70;97.30;;;;;;5053610;28;20466;-76
2023/05/12 02:21:58;;;;;;;1999.90;999.90;;;9.60;97.20;;;;;;5072115;28;20068;-76
2023/05/12 02:24:24;;;;;;;1999.90;999.90;;;9.60;97.10;;;;;;5069615;28;20513;-76
2023/05/12 02:26:50;;;;;;;1999.90;999.90;;;9.80;97.30;;;;;;5045725;28;20495;-77
2023/05/12 02:29:15;;;;;;;1999.90;999.90;;;9.70;96.90;;;;;;5033376;28;20541;-76
2023/05/12 02:31:41;;;;;;;1999.90;999.90;;;9.60;97.00;;;;;;5067432;28;20491;-76
2023/05/12 02:34:06;;;;;;;1999.90;999.90;;;9.70;97.10;;;;;;5078377;28;20785;-75
2023/05/12 02:36:32;;;;;;;1999.90;999.90;;;9.50;96.80;;;;;;5050612;28;20042;-76
2023/05/12 02:38:58;;;;;;;1999.90;999.90;;;9.60;97.00;;;;;;5075156;28;20036;-77
2023/05/12 02:41:24;;;;;;;1999.90;999.90;;;9.50;97.10;;;;;;5074682;28;20038;-76
2023/05/12 02:43:49;;;;;;;1999.90;999.90;;;9.60;97.10;;;;;;5071012;28;20108;-76
2023/05/12 02:46:15;;;;;;;1999.90;999.90;;;9.60;97.10;;;;;;5051674;28;20364;-76
2023/05/12 02:48:41;;;;;;;1999.90;999.90;;;9.40;96.90;;;;;;5058613;28;20086;-76
2023/05/12 02:51:06;;;;;;;1999.90;999.90;;;9.30;97.10;;;;;;5070985;28;20047;-76
2023/05/12 02:53:32;;;;;;;1999.90;999.90;;;9.50;97.20;;;;;;5070413;28;20081;-76
2023/05/12 02:55:57;;;;;;;1999.90;999.90;;;9.50;97.00;;;;;;5069587;28;20498;-76
2023/05/12 02:58:23;;;;;;;1999.90;999.90;;;9.50;97.10;;;;;;5072905;28;20029;-76
2023/05/12 03:00:49;;;;;;;1999.90;999.90;;;9.50;96.90;;;;;;5054727;28;20044;-75
2023/05/12 03:03:14;;;;;;;1999.90;999.90;;;9.70;97.00;;;;;;5072339;28;20835;-76
2023/05/12 03:05:40;;;;;;;1999.90;999.90;;;9.70;96.80;;;;;;5052845;28;20494;-76
2023/05/12 03:08:06;;;;;;;1999.90;999.90;;;9.70;96.80;;;;;;5072969;28;20553;-79
2023/05/12 03:10:32;;;;;;;1999.90;999.90;;;9.80;96.80;;;;;;5065176;28;21356;-76
2023/05/12 03:12:57;;;;;;;1999.90;999.90;;;9.90;96.40;;;;;;5052944;28;20459;-75
2023/05/12 03:15:23;;;;;;;1999.90;999.90;;;9.80;96.10;;;;;;5050678;28;20040;-75
2023/05/12 03:17:49;;;;;;;1999.90;999.90;;;9.70;96.10;;;;;;5052919;28;20074;-75
2023/05/12 03:20:15;;;;;;;1999.90;999.90;;;9.70;96.20;;;;;;5053793;28;20041;-75
2023/05/12 03:22:41;;;;;;;1999.90;999.90;;;9.70;96.30;;;;;;5062902;28;20110;-75
2023/05/12 03:25:09;;;;;;;1999.90;999.90;;;9.60;96.50;;;;;;5050287;28;20156;-75
2023/05/12 03:27:34;;;;;;;1999.90;999.90;;;9.60;96.60;;;;;;5073899;28;20031;-75
2023/05/12 03:30:01;;;;;;;1999.90;999.90;;;9.50;96.60;;;;;;5067545;28;20521;-75
2023/05/12 03:32:29;;;;;;;1999.90;999.90;;;9.70;96.70;;;;;;5067048;28;20376;-75
2023/05/12 03:34:55;;;;;;;1999.90;999.90;;;9.70;96.50;;;;;;5065581;28;20082;-76
2023/05/12 03:37:21;;;;;;;1999.90;999.90;;;9.80;96.50;;;;;;5051265;28;20029;-76
2023/05/12 03:39:47;;;;;;;1999.90;999.90;;;9.70;96.40;;;;;;5067755;28;20056;-76
2023/05/12 03:42:13;;;;;;;1999.90;999.90;;;9.50;96.50;;;;;;5069758;28;20111;-76
2023/05/12 03:44:39;;;;;;;1999.90;999.90;;;9.50;96.70;;;;;;5052082;28;20155;-76
2023/05/12 03:47:05;;;;;;;1999.90;999.90;;;9.40;96.80;;;;;;5075575;28;20107;-76
2023/05/12 03:49:31;;;;;;;1999.90;999.90;;;9.60;96.90;;;;;;5049741;28;20124;-76
2023/05/12 03:51:56;;;;;;;1999.90;999.90;;;9.60;96.90;;;;;;5045215;28;20112;-77
2023/05/12 03:54:22;;;;;;;1999.90;999.90;;;9.70;96.70;;;;;;5070817;28;20112;-76
2023/05/12 03:56:47;;;;;;;1999.90;999.90;;;9.70;96.60;;;;;;5067398;28;20064;-76
2023/05/12 03:59:13;;;;;;;1999.90;999.90;;;9.80;96.60;;;;;;5044109;28;20021;-76
2023/05/12 04:01:39;;;;;;;1999.90;999.90;;;9.80;96.40;;;;;;5071118;28;20516;-77
2023/05/12 04:04:05;;;;;;;1999.90;999.90;;;9.70;96.20;;;;;;5069592;28;20028;-76
2023/05/12 04:06:31;;;;;;;1999.90;999.90;;;9.60;96.40;;;;;;5072787;28;20036;-76
2023/05/12 04:08:56;;;;;;;1999.90;999.90;;;9.80;96.50;;;;;;5055860;28;20732;-76
2023/05/12 04:11:22;;;;;;;1999.90;999.90;;;9.90;96.20;;;;;;5062188;28;20025;-76
2023/05/12 04:13:48;;;;;;;1999.90;999.90;;;9.80;96.20;;;;;;5046602;28;20029;-76
2023/05/12 04:16:14;;;;;;;1999.90;999.90;;;9.70;96.20;;;;;;5065396;28;20032;-76
2023/05/12 04:18:39;;;;;;;1999.90;999.90;;;9.70;96.40;;;;;;5035519;28;20059;-75
2023/05/12 04:21:05;;;;;;;1999.90;999.90;;;9.60;96.60;;;;;;5063122;28;20041;-77
2023/05/12 04:23:31;;;;;;;1999.90;999.90;;;9.70;96.60;;;;;;5074639;28;20047;-78
2023/05/12 04:25:56;;;;;;;1999.90;999.90;;;9.80;96.40;;;;;;5068054;28;20033;-76
2023/05/12 04:28:22;;;;;;;1999.90;999.90;;;9.60;96.30;;;;;;5071543;28;20025;-75
2023/05/12 04:30:48;;;;;;;1999.90;999.90;;;9.70;96.40;;;;;;5054676;28;20039;-77
2023/05/12 04:33:13;;;;;;;1999.90;999.90;;;9.70;96.40;;;;;;5072015;28;20099;-76
2023/05/12 04:35:39;;;;;;;1999.90;999.90;;;9.80;96.40;;;;;;5038718;28;20089;-76
2023/05/12 04:38:05;;;;;;;1999.90;999.90;;;9.70;96.20;;;;;;5080095;28;20066;-75
2023/05/12 04:40:31;;;;;;;1999.90;999.90;;;9.80;96.60;;;;;;5051677;28;20033;-80
2023/05/12 04:42:57;;;;;;;1999.90;999.90;;;9.60;96.50;;;;;;5048026;28;20048;-76
2023/05/12 04:45:23;;;;;;;1999.90;999.90;;;9.60;96.60;;;;;;5051257;28;20028;-76
2023/05/12 04:47:48;;;;;;;1999.90;999.90;;;9.70;96.90;;;;;;5077084;28;20040;-76
2023/05/12 04:50:17;;;;;;;1999.90;999.90;;;9.80;96.80;;;;;;5075818;28;20063;-76
2023/05/12 04:52:43;;;;;;;1999.90;999.90;;;9.80;96.70;;;;;;5052595;28;20035;-76
2023/05/12 04:55:08;;;;;;;1999.90;999.90;;;9.70;96.70;;;;;;5053548;28;20020;-76
2023/05/12 04:57:34;;;;;;;1999.90;999.90;;;9.80;96.70;;;;;;5055521;28;20040;-76
2023/05/12 05:00:03;;;;;;;1999.90;999.90;;;9.90;96.60;;;;;;5054642;28;20040;-75
2023/05/12 05:02:29;;;;;;;1999.90;999.90;;;10.00;96.60;;;;;;5068731;28;20062;-76
2023/05/12 05:04:55;;;;;;;1999.90;999.90;;;10.00;96.40;;;;;;5063539;28;20064;-76
2023/05/12 05:07:20;;;;;;;1999.90;999.90;;;10.00;96.50;;;;;;5054464;28;20119;-76
2023/05/12 05:09:46;;;;;;;1999.90;999.90;;;10.20;96.40;;;;;;5068534;28;20048;-76
2023/05/12 05:12:12;;;;;;;1999.90;999.90;;;10.30;96.20;;;;;;5049154;28;20032;-75
2023/05/12 05:14:37;;;;;;;1999.90;999.90;;;10.30;96.00;;;;;;5072907;28;20074;-75
2023/05/12 05:17:05;;;;;;;1999.90;999.90;;;10.30;95.60;;;;;;5075673;28;20048;-76
2023/05/12 05:19:31;;;;;;;1999.90;999.90;;;10.40;95.40;;;;;;5068868;28;20040;-76
2023/05/12 05:21:57;;;;;;;1999.90;999.90;;;10.50;95.20;;;;;;5051339;28;20598;-76
2023/05/12 05:24:23;;;;;;;1999.90;999.90;;;10.60;95.10;;;;;;5069041;28;20028;-76
2023/05/12 05:26:48;;;;;;;1999.90;999.90;;;10.70;94.70;;;;;;5049749;28;20131;-78
2023/05/12 05:29:14;;;;;;;1999.90;999.90;;;11.00;94.20;;;;;;5054660;28;20116;-79
2023/05/12 05:31:40;;;;;;;1999.90;999.90;;;11.10;93.80;;;;;;5076674;28;20036;-79
2023/05/12 05:34:05;;;;;;;1999.90;999.90;;;11.20;93.50;;;;;;5065413;28;20032;-78
2023/05/12 05:36:31;;;;;;;1999.90;999.90;;;11.10;92.60;;;;;;5058500;28;20033;-77
2023/05/12 05:38:57;;;;;;;1999.90;999.90;;;11.10;92.70;;;;;;5052308;28;20043;-78
2023/05/12 05:41:22;;;;;;;1999.90;999.90;;;11.20;92.30;;;;;;5050877;28;20073;-76
2023/05/12 05:43:48;;;;;;;1999.90;999.90;;;11.30;91.80;;;;;;5055467;28;20052;-74
2023/05/12 05:46:14;;;;;;;1999.90;999.90;;;11.10;91.90;;;;;;5049463;28;20071;-77
2023/05/12 05:48:39;;;;;;;1999.90;999.90;;;11.00;91.90;;;;;;5045314;28;20100;-78
2023/05/12 05:51:05;;;;;;;1999.90;999.90;;;11.30;91.80;;;;;;5025299;28;20514;-77
2023/05/12 05:53:31;;;;;;;1999.90;999.90;;;11.50;91.40;;;;;;5052177;28;20031;-77
2023/05/12 05:55:57;;;;;;;1999.90;999.90;;;11.40;91.40;;;;;;5046021;28;20065;-77
2023/05/12 05:58:23;;;;;;;1999.90;999.90;;;11.40;91.40;;;;;;5044976;28;20033;-77
2023/05/12 06:00:49;;;;;;;1999.90;999.90;;;11.70;91.50;;;;;;5042874;28;20439;-78
2023/05/12 06:03:15;;;;;;;1999.90;999.90;;;11.80;91.20;;;;;;5023590;28;20503;-77
2023/05/12 06:05:42;;;;;;;1999.90;999.90;;;11.80;90.50;;;;;;5026017;28;20036;-77
2023/05/12 06:08:09;;;;;;;1999.90;999.90;;;11.90;90.60;;;;;;5025235;28;20547;-78
2023/05/12 06:10:35;;;;;;;1999.90;999.90;;;12.10;90.30;;;;;;5030103;28;20063;-77
2023/05/12 06:13:01;;;;;;;1999.90;999.90;;;12.20;90.20;;;;;;5048260;28;20030;-77
2023/05/12 06:15:27;;;;;;;1999.90;999.90;;;12.10;89.60;;;;;;5013908;28;20076;-77
2023/05/12 06:17:52;;;;;;;1999.90;999.90;;;12.20;88.90;;;;;;5044739;28;20033;-77
2023/05/12 06:20:18;;;;;;;1999.90;999.90;;;12.60;87.60;;;;;;5029273;28;20053;-77
2023/05/12 06:22:45;;;;;;;1999.90;999.90;;;12.60;86.60;;;;;;5028855;28;20037;-78
2023/05/12 06:25:11;;;;;;;1999.90;999.90;;;12.70;87.80;;;;;;5047489;28;20033;-77
2023/05/12 06:27:37;;;;;;;1999.90;999.90;;;12.80;87.00;;;;;;5027004;28;20492;-78
2023/05/12 06:30:04;;;;;;;1999.90;999.90;;;12.90;85.70;;;;;;5024641;28;20505;-78
2023/05/12 06:32:30;;;;;;;1999.90;999.90;;;12.90;86.50;;;;;;5024511;28;20082;-78
2023/05/12 06:34:56;;;;;;;1999.90;999.90;;;12.80;85.40;;;;;;5042418;28;20037;-78
2023/05/12 06:37:21;;;;;;;1999.90;999.90;;;12.90;85.10;;;;;;5023035;28;20077;-78
2023/05/12 06:39:47;;;;;;;1999.90;999.90;;;13.20;82.10;;;;;;5030445;28;20029;-78
2023/05/12 06:42:13;;;;;;;1999.90;999.90;;;13.30;82.20;;;;;;5021099;28;20503;-78
2023/05/12 06:44:38;;;;;;;1999.90;999.90;;;13.50;81.80;;;;;;5047444;28;20048;-78
2023/05/12 06:47:05;;;;;;;1999.90;999.90;;;13.40;80.20;;;;;;5043878;28;20112;-78
2023/05/12 06:49:34;;;;;;;1999.90;999.90;;;13.30;82.10;;;;;;5063765;28;20049;-78
2023/05/12 06:52:00;;;;;;;1999.90;999.90;;;13.50;79.50;;;;;;5047420;28;20029;-78
2023/05/12 06:54:25;;;;;;;1999.90;999.90;;;13.60;81.20;;;;;;5063825;28;20025;-78
2023/05/12 06:56:52;;;;;;;1999.90;999.90;;;13.20;78.20;;;;;;5046199;28;20041;-79
2023/05/12 06:59:17;;;;;;;1999.90;999.90;;;13.20;81.20;;;;;;5077252;28;20037;-78
2023/05/12 07:01:43;;;;;;;1999.90;999.90;;;13.30;81.60;;;;;;5048648;28;20036;-79
2023/05/12 07:04:09;;;;;;;1999.90;999.90;;;13.60;81.40;;;;;;5064946;28;20033;-78
2023/05/12 07:06:35;;;;;;;1999.90;999.90;;;13.40;80.60;;;;;;5034126;28;20107;-78
2023/05/12 07:09:00;;;;;;;1999.90;999.90;;;13.70;79.30;;;;;;5043583;28;20029;-78
2023/05/12 07:11:26;;;;;;;1999.90;999.90;;;13.80;78.30;;;;;;5047288;28;20033;-78
2023/05/12 07:13:52;;;;;;;1999.90;999.90;;;14.20;76.30;;;;;;5065907;28;20074;-78
2023/05/12 07:16:19;;;;;;;1999.90;999.90;;;14.30;76.70;;;;;;5065939;28;20024;-78
2023/05/12 07:18:45;;;;;;;1999.90;999.90;;;14.10;76.60;;;;;;5048126;28;20029;-78
2023/05/12 07:21:12;;;;;;;1999.90;999.90;;;14.20;76.00;;;;;;5062545;28;20028;-78
2023/05/12 07:23:38;;;;;;;1999.90;999.90;;;14.40;72.60;;;;;;5043271;28;20520;-78
2023/05/12 07:26:05;;;;;;;1999.90;999.90;;;14.30;77.10;;;;;;5046830;28;20039;-78
2023/05/12 07:28:36;;;;;;;1999.90;999.90;;;14.40;74.40;;;;;;5067470;28;20028;-78
2023/05/12 07:31:01;;;;;;;;;;;14.70;73.00;;;;;;5063958;28;20036;-78
2023/05/12 07:33:28;;;;;;;1999.90;999.90;;;14.60;74.00;;;;;;5065702;28;20296;-78
2023/05/12 07:35:53;;;;;;;1999.90;999.90;;;14.70;72.90;;;;;;5047291;28;20033;-78
2023/05/12 07:38:19;;;;;;;1999.90;999.90;;;14.70;73.90;;;;;;5045285;28;20020;-78
2023/05/12 07:40:45;;;;;;;1999.90;999.90;;;14.90;73.60;;;;;;5051905;28;20040;-78
2023/05/12 07:43:11;;;;;;;1999.90;999.90;;;15.40;73.00;;;;;;5067855;28;20494;-78
2023/05/12 07:45:36;;;;;;;1999.90;999.90;;;15.50;70.30;;;;;;5065131;28;20399;-78
2023/05/12 07:48:02;;;;;;;1999.90;999.90;;;15.60;71.80;;;;;;5049682;28;20045;-78
2023/05/12 07:50:28;;;;;;;1999.90;999.90;;;15.50;72.50;;;;;;5048923;28;20041;-78
2023/05/12 07:52:54;;;;;;;1999.90;999.90;;;15.50;70.70;;;;;;5049056;28;20036;-78
2023/05/12 07:55:21;;;;;;;1999.90;999.90;;;15.70;71.60;;;;;;5068123;28;20025;-78
2023/05/12 07:57:48;;;;;;;1999.90;999.90;;;15.40;68.90;;;;;;5051822;28;20043;-78
2023/05/12 08:00:14;;;;;;;1999.90;999.90;;;15.50;68.50;;;;;;5073360;28;20035;-78
2023/05/12 08:02:40;;;;;;;1999.90;999.90;;;15.40;68.50;;;;;;5053636;28;20518;-78
2023/05/12 08:05:08;;;;;;;1999.90;999.90;;;15.90;67.40;;;;;;5047560;28;20060;-78
2023/05/12 08:07:34;;;;;;;1999.90;999.90;;;15.70;67.80;;;;;;5048587;28;20522;-78
2023/05/12 08:10:01;;;;;;;1999.90;999.90;;;15.40;68.10;;;;;;5049805;28;20032;-78
2023/05/12 08:12:27;;;;;;;1999.90;999.90;;;15.20;68.00;;;;;;5031748;28;20037;-78
2023/05/12 08:14:53;;;;;;;1999.90;999.90;;;15.40;68.10;;;;;;5050196;28;20367;-78
2023/05/12 08:17:19;;;;;;;1999.90;999.90;;;15.40;67.60;;;;;;5065453;28;20521;-78
2023/05/12 08:19:45;;;;;;;1999.90;999.90;;;15.10;68.50;;;;;;5046941;28;20032;-78
2023/05/12 08:22:10;;;;;;;1999.90;999.90;;;15.50;70.90;;;;;;5050958;28;20610;-78
2023/05/12 08:24:36;;;;;;;1999.90;999.90;;;16.00;70.80;;;;;;5049611;28;20584;-77
2023/05/12 08:27:02;;;;;;;1999.90;999.90;;;16.20;68.80;;;;;;5069043;28;20053;-79
2023/05/12 08:29:27;;;;;;;1999.90;999.90;;;16.10;66.40;;;;;;5053776;28;20037;-78
2023/05/12 08:31:53;;;;;;;1999.90;999.90;;;15.90;65.90;;;;;;5049557;28;20071;-78
2023/05/12 08:34:19;;;;;;;1999.90;999.90;;;15.90;69.80;;;;;;5049061;28;20032;-79
2023/05/12 08:36:45;;;;;;;1999.90;999.90;;;16.10;65.30;;;;;;5031538;28;20529;-79
2023/05/12 08:39:11;;;;;;;1999.90;999.90;;;16.00;65.30;;;;;;5070564;28;20041;-79
2023/05/12 08:41:51;;;;;;;1999.90;999.90;;;16.20;64.30;;;;;;5067302;28;20024;-79
2023/05/12 08:44:18;;;;;;;1999.90;999.90;;;16.10;65.30;;;;;;5063529;28;20052;-78
2023/05/12 08:46:46;;;;;;;1999.90;999.90;;;16.00;64.90;;;;;;5045177;28;20032;-78
2023/05/12 08:49:16;;;;;;;1999.90;999.90;;;16.30;66.50;;;;;;5063000;28;20024;-78
2023/05/12 08:51:43;;;;;;;1999.90;999.90;;;16.00;66.00;;;;;;5068768;28;20063;-78
2023/05/12 08:54:11;;;;;;;1999.90;999.90;;;16.40;65.40;;;;;;5072539;28;20037;-78
2023/05/12 08:56:38;;;;;;;1999.90;999.90;;;16.20;65.20;;;;;;5074378;28;20085;-77
2023/05/12 08:59:07;;;;;;;1999.90;999.90;;;16.30;65.60;;;;;;5053639;28;20074;-77
2023/05/12 09:01:34;;;;;;;1999.90;999.90;;;16.60;65.90;;;;;;5068874;28;20040;-79
2023/05/12 09:04:01;;;;;;;1999.90;999.90;;;16.70;63.30;;;;;;5068228;28;20056;-78
2023/05/12 09:06:26;;;;;;;1999.90;999.90;;;17.00;62.30;;;;;;5064630;28;20029;-78
2023/05/12 09:08:52;;;;;;;1999.90;999.90;;;17.30;61.60;;;;;;5048728;28;20037;-78
2023/05/12 09:11:20;;;;;;;1999.90;999.90;;;16.80;61.10;;;;;;5063511;28;20028;-78
2023/05/12 09:14:08;;;;;;;1999.90;999.90;;;16.90;63.30;;;;;;5047496;28;20402;-78
2023/05/12 09:16:42;;;;;;;1999.90;999.90;;;16.60;63.00;;;;;;5066546;28;20024;-78
2023/05/12 09:19:08;;;;;;;1999.90;999.90;;;16.70;63.00;;;;;;5049722;28;20033;-78
2023/05/12 09:21:33;;;;;;;1999.90;999.90;;;15.80;65.10;;;;;;5063326;28;20029;-79
2023/05/12 09:24:07;;;;;;;1999.90;999.90;;;15.50;62.90;;;;;;5069439;28;20043;-78
2023/05/12 09:26:46;;;;;;;1999.90;999.90;;;15.50;65.40;;;;;;5051044;28;20024;-79
2023/05/12 09:29:12;;;;;;;1999.90;999.90;;;15.30;66.90;;;;;;5049875;28;20510;-79
2023/05/12 09:31:47;;;;;;;1999.90;999.90;;;15.80;66.70;;;;;;5068133;28;20431;-79
2023/05/12 09:34:13;;;;;;;1999.90;999.90;;;16.20;65.00;;;;;;5062175;28;20111;-79
2023/05/12 09:36:39;;;;;;;1999.90;999.90;;;15.80;65.40;;;;;;5050466;28;20115;-79
2023/05/12 09:39:06;;;;;;;1999.90;999.90;;;16.40;67.30;;;;;;5034787;28;20082;-79
2023/05/12 09:41:36;;;;;;;1999.90;999.90;;;16.30;65.40;;;;;;5049046;28;20024;-79
2023/05/12 09:44:03;;;;;;;1999.90;999.90;;;16.40;64.10;;;;;;5048629;28;20076;-79
2023/05/12 09:46:28;;;;;;;1999.90;999.90;;;16.30;63.60;;;;;;5062968;28;20482;-79
2023/05/12 09:48:58;;;;;;;1999.90;999.90;;;16.30;64.30;;;;;;5045362;28;20043;-79
2023/05/12 09:51:25;;;;;;;1999.90;999.90;;;16.10;66.10;;;;;;5048758;28;20147;-79
2023/05/12 09:53:52;;;;;;;1999.90;999.90;;;16.10;66.10;;;;;;5065012;28;20282;-79
2023/05/12 09:56:18;;;;;;;1999.90;999.90;;;15.80;66.30;;;;;;5064989;28;20094;-79
2023/05/12 09:58:46;;;;;;;1999.90;999.90;;;15.80;67.60;;;;;;5068036;28;20119;-79
2023/05/12 10:01:14;;;;;;;1999.90;999.90;;;16.00;68.10;;;;;;5069361;28;20060;-79
2023/05/12 10:03:41;;;;;;;1999.90;999.90;;;15.60;68.40;;;;;;5032027;28;20031;-79
2023/05/12 10:06:11;;;;;;;1999.90;999.90;;;15.30;68.20;;;;;;5045500;28;20033;-79
2023/05/12 10:08:47;;;;;;;1999.90;999.90;;;15.10;68.80;;;;;;5065969;28;20060;-78
2023/05/12 10:11:13;;;;;;;1999.90;999.90;;;14.90;68.40;;;;;;5071722;28;20120;-78
2023/05/12 10:13:39;;;;;;;1999.90;999.90;;;14.80;68.50;;;;;;5034248;28;20079;-79
2023/05/12 10:16:06;;;;;;;1999.90;999.90;;;14.80;68.10;;;;;;5057400;28;20494;-79
2023/05/12 10:18:33;;;;;;;1999.90;999.90;;;14.30;69.70;;;;;;5070105;28;20100;-78
2023/05/12 10:21:00;;;;;;;1999.90;999.90;;;14.40;70.90;;;;;;5058180;28;20035;-80
2023/05/12 10:23:26;;;;;;;1999.90;999.90;;;14.90;68.20;;;;;;5052123;28;20141;-78
2023/05/12 10:26:01;;;;;;;1999.90;999.90;;;14.80;70.20;;;;;;5070650;28;20462;-84
2023/05/12 10:28:29;;;;;;;1999.90;999.90;;;14.80;70.70;;;;;;5055425;28;20467;-82
2023/05/12 10:30:58;;;;;;;1999.90;999.90;;;15.00;69.50;;;;;;5052703;28;20116;-82
2023/05/12 10:33:25;;;;;;;1999.90;999.90;;;14.70;69.80;;;;;;5046674;28;20033;-85
2023/05/12 10:35:52;;;;;;;1999.90;999.90;;;14.50;71.40;;;;;;5050142;28;20041;-82
2023/05/12 10:38:21;;;;;;;1999.90;999.90;;;14.80;71.70;;;;;;5048065;28;20037;-84
2023/05/12 10:40:59;;;;;;;1999.90;999.90;;;15.00;70.80;;;;;;5044826;28;20025;-84
2023/05/12 10:43:29;;;;;;;1999.90;999.90;;;15.00;69.70;;;;;;5051842;28;20122;-84
2023/05/12 10:46:09;;;;;;;1999.90;999.90;;;15.20;70.50;;;;;;5048003;28;20033;-82
2023/05/12 10:48:37;;;;;;;1999.90;999.90;;;15.10;68.40;;;;;;5053503;28;20356;-84
2023/05/12 10:51:08;;;;;;;1999.90;999.90;;;15.20;70.30;;;;;;5047209;28;20485;-85
2023/05/12 10:53:34;;;;;;;1999.90;999.90;;;15.40;71.00;;;;;;5047241;28;20021;-84
2023/05/12 10:56:07;;;;;;;1999.90;999.90;;;15.60;70.60;;;;;;5044524;28;20044;-83
2023/05/12 10:58:33;;;;;;;;;;;15.80;70.40;;;;;;5050208;28;20391;-83
2023/05/12 11:01:06;;;;;;;1999.90;999.90;;;15.90;69.50;;;;;;5044818;28;19924;-83
2023/05/12 11:03:32;;;;;;;1999.90;999.90;;;15.90;67.70;;;;;;5046929;28;20033;-85
2023/05/12 11:06:03;;;;;;;1999.90;999.90;;;16.00;65.00;;;;;;5022246;28;20029;-84
2023/05/12 11:08:33;;;;;;;1999.90;999.90;;;16.20;66.70;;;;;;5048251;28;20431;-83
2023/05/12 11:11:00;;;;;;;1999.90;999.90;;;16.40;63.00;;;;;;5032042;28;20090;-83
2023/05/12 11:13:28;;;;;;;1999.90;999.90;;;16.40;64.20;;;;;;5047987;28;20069;-86
2023/05/12 11:15:57;;;;;;;1999.90;999.90;;;17.00;64.70;;;;;;5051259;28;20036;-86
2023/05/12 11:18:23;;;;;;;1999.90;999.90;;;17.30;62.20;;;;;;5043052;28;20029;-85
2023/05/12 11:20:49;;;;;;;1999.90;999.90;;;17.10;63.10;;;;;;5042991;28;20375;-83
2023/05/12 11:23:28;;;;;;;1999.90;999.90;;;18.00;62.00;;;;;;5058529;28;20048;-83
2023/05/12 11:25:55;;;;;;;1999.90;999.90;;;18.50;60.50;;;;;;5054328;28;20068;-83
2023/05/12 11:28:21;;;;;;;1999.90;999.90;;;18.30;58.40;;;;;;5043729;28;20060;-84
2023/05/12 11:30:53;;;;;;;1999.90;999.90;;;18.50;58.70;;;;;;5043226;28;20032;-85
2023/05/12 11:33:22;;;;;;;1999.90;999.90;;;18.60;54.60;;;;;;5039870;28;20402;-79
2023/05/12 11:35:51;;;;;;;1999.90;999.90;;;18.50;57.80;;;;;;5037038;28;20040;-78
2023/05/12 11:38:18;;;;;;;1999.90;999.90;;;18.40;59.80;;;;;;5027432;28;20499;-80
2023/05/12 11:40:46;;;;;;;1999.90;999.90;;;19.10;57.00;;;;;;5031487;28;20033;-79
2023/05/12 11:43:14;;;;;;;1999.90;999.90;;;19.10;56.40;;;;;;5023372;28;20060;-80
2023/05/12 11:45:40;;;;;;;1999.90;999.90;;;19.80;55.20;;;;;;5023887;28;20041;-81
2023/05/12 11:48:11;;;;;;;1999.90;999.90;;;19.90;51.80;;;;;;5023586;28;20025;-81
2023/05/12 11:50:47;;;;;;;1999.90;999.90;;;19.90;55.50;;;;;;5018258;28;20040;-80
2023/05/12 11:53:16;;;;;;;1999.90;999.90;;;19.70;55.80;;;;;;5031282;28;20032;-80
2023/05/12 11:55:49;;;;;;;1999.90;999.90;;;19.60;56.30;;;;;;5035377;28;20037;-80
2023/05/12 11:58:29;;;;;;;1999.90;999.90;;;20.20;54.50;;;;;;5023171;28;20033;-77
2023/05/12 12:00:56;;;;;;;1999.90;999.90;;;20.40;54.20;;;;;;5027434;28;20068;-80